sensor_id;sensor_type;location;lat;lon;timestamp;P1;durP1;ratioP1;P2;durP2;ratioP2
76176;SDS011;64938;47.696;8.066;2022-11-20T00:02:15;6.73;;;4.07;;
76176;SDS011;64938;47.696;8.066;2022-11-20T00:04:40;5.17;;;4.20;;
76176;SDS011;64938;47.696;8.066;2022-11-20T00:07:06;4.50;;;4.10;;
76176;SDS011;64938;47.696;8.066;2022-11-20T00:09:31;4.83;;;4.30;;
76176;SDS011;64938;47.696;8.066;2022-11-20T00:11:57;5.33;;;4.30;;
76176;SDS011;64938;47.696;8.066;2022-11-20T00:14:23;4.93;;;4.53;;
76176;SDS011;64938;47.696;8.066;2022-11-20T00:16:48;4.70;;;4.30;;
76176;SDS011;64938;47.696;8.066;2022-11-20T00:19:14;4.37;;;3.97;;
76176;SDS011;64938;47.696;8.066;2022-11-20T00:21:39;5.10;;;4.67;;
76176;SDS011;64938;47.696;8.066;2022-11-20T00:24:05;4.77;;;4.37;;
76176;SDS011;64938;47.696;8.066;2022-11-20T00:26:31;5.40;;;4.90;;
76176;SDS011;64938;47.696;8.066;2022-11-20T00:28:59;5.53;;;4.60;;
76176;SDS011;64938;47.696;8.066;2022-11-20T00:31:25;4.50;;;4.17;;
76176;SDS011;64938;47.696;8.066;2022-11-20T00:33:52;5.00;;;4.50;;
76176;SDS011;64938;47.696;8.066;2022-11-20T00:36:19;4.87;;;4.43;;
76176;SDS011;64938;47.696;8.066;2022-11-20T00:38:46;5.23;;;4.73;;
76176;SDS011;64938;47.696;8.066;2022-11-20T00:41:14;5.57;;;5.07;;
76176;SDS011;64938;47.696;8.066;2022-11-20T00:43:41;5.27;;;4.77;;
76176;SDS011;64938;47.696;8.066;2022-11-20T00:46:08;5.33;;;4.83;;
76176;SDS011;64938;47.696;8.066;2022-11-20T00:48:35;4.90;;;4.50;;
76176;SDS011;64938;47.696;8.066;2022-11-20T00:51:01;5.70;;;5.20;;
76176;SDS011;64938;47.696;8.066;2022-11-20T00:53:27;5.40;;;4.90;;
76176;SDS011;64938;47.696;8.066;2022-11-20T00:55:54;5.50;;;5.03;;
76176;SDS011;64938;47.696;8.066;2022-11-20T00:58:21;5.53;;;5.03;;
76176;SDS011;64938;47.696;8.066;2022-11-20T01:00:47;5.47;;;4.97;;
76176;SDS011;64938;47.696;8.066;2022-11-20T01:03:15;4.83;;;4.43;;
76176;SDS011;64938;47.696;8.066;2022-11-20T01:05:41;5.50;;;5.00;;
76176;SDS011;64938;47.696;8.066;2022-11-20T01:08:07;5.23;;;4.73;;
76176;SDS011;64938;47.696;8.066;2022-11-20T01:10:34;5.60;;;4.90;;
76176;SDS011;64938;47.696;8.066;2022-11-20T01:12:59;5.33;;;4.83;;
76176;SDS011;64938;47.696;8.066;2022-11-20T01:15:45;4.60;;;4.20;;
76176;SDS011;64938;47.696;8.066;2022-11-20T01:18:10;6.10;;;4.90;;
76176;SDS011;64938;47.696;8.066;2022-11-20T01:20:36;4.73;;;4.33;;
76176;SDS011;64938;47.696;8.066;2022-11-20T01:23:02;4.37;;;3.97;;
76176;SDS011;64938;47.696;8.066;2022-11-20T01:25:28;5.17;;;3.90;;
76176;SDS011;64938;47.696;8.066;2022-11-20T01:27:54;5.90;;;4.90;;
76176;SDS011;64938;47.696;8.066;2022-11-20T01:30:20;5.43;;;4.57;;
76176;SDS011;64938;47.696;8.066;2022-11-20T01:32:45;5.20;;;4.70;;
76176;SDS011;64938;47.696;8.066;2022-11-20T01:35:11;5.03;;;4.10;;
76176;SDS011;64938;47.696;8.066;2022-11-20T01:37:36;4.93;;;4.40;;
76176;SDS011;64938;47.696;8.066;2022-11-20T01:40:02;4.80;;;4.40;;
76176;SDS011;64938;47.696;8.066;2022-11-20T01:42:28;4.93;;;4.20;;
76176;SDS011;64938;47.696;8.066;2022-11-20T01:48:11;5.43;;;4.77;;
76176;SDS011;64938;47.696;8.066;2022-11-20T01:50:37;5.77;;;5.20;;
76176;SDS011;64938;47.696;8.066;2022-11-20T01:53:05;4.73;;;4.20;;
76176;SDS011;64938;47.696;8.066;2022-11-20T01:55:36;4.70;;;4.23;;
76176;SDS011;64938;47.696;8.066;2022-11-20T01:58:05;4.43;;;4.03;;
76176;SDS011;64938;47.696;8.066;2022-11-20T02:00:31;5.43;;;4.20;;
76176;SDS011;64938;47.696;8.066;2022-11-20T02:02:57;4.63;;;4.23;;
76176;SDS011;64938;47.696;8.066;2022-11-20T02:05:30;5.20;;;4.50;;
76176;SDS011;64938;47.696;8.066;2022-11-20T02:07:59;4.40;;;4.03;;
76176;SDS011;64938;47.696;8.066;2022-11-20T02:10:25;4.67;;;4.23;;
76176;SDS011;64938;47.696;8.066;2022-11-20T02:12:51;7.05;;;4.55;;
76176;SDS011;64938;47.696;8.066;2022-11-20T02:15:37;4.67;;;4.20;;
76176;SDS011;64938;47.696;8.066;2022-11-20T02:18:02;4.73;;;3.93;;
76176;SDS011;64938;47.696;8.066;2022-11-20T02:20:29;5.40;;;3.83;;
76176;SDS011;64938;47.696;8.066;2022-11-20T02:22:56;4.53;;;4.13;;
76176;SDS011;64938;47.696;8.066;2022-11-20T02:25:25;5.07;;;4.57;;
76176;SDS011;64938;47.696;8.066;2022-11-20T02:27:51;4.70;;;4.30;;
76176;SDS011;64938;47.696;8.066;2022-11-20T02:30:17;5.80;;;4.00;;
76176;SDS011;64938;47.696;8.066;2022-11-20T02:32:43;5.90;;;4.80;;
76176;SDS011;64938;47.696;8.066;2022-11-20T02:35:09;4.63;;;4.23;;
76176;SDS011;64938;47.696;8.066;2022-11-20T02:37:55;4.70;;;4.20;;
76176;SDS011;64938;47.696;8.066;2022-11-20T02:40:21;7.07;;;4.70;;
76176;SDS011;64938;47.696;8.066;2022-11-20T02:42:47;4.30;;;3.90;;
76176;SDS011;64938;47.696;8.066;2022-11-20T02:45:17;4.83;;;4.33;;
76176;SDS011;64938;47.696;8.066;2022-11-20T02:47:43;5.73;;;4.90;;
76176;SDS011;64938;47.696;8.066;2022-11-20T02:50:09;4.70;;;4.00;;
76176;SDS011;64938;47.696;8.066;2022-11-20T02:52:35;5.10;;;4.27;;
76176;SDS011;64938;47.696;8.066;2022-11-20T02:55:01;6.93;;;4.37;;
76176;SDS011;64938;47.696;8.066;2022-11-20T02:57:27;5.70;;;4.20;;
76176;SDS011;64938;47.696;8.066;2022-11-20T02:59:53;5.60;;;4.50;;
76176;SDS011;64938;47.696;8.066;2022-11-20T03:02:19;5.00;;;4.17;;
76176;SDS011;64938;47.696;8.066;2022-11-20T03:04:45;4.50;;;4.13;;
76176;SDS011;64938;47.696;8.066;2022-11-20T03:07:11;4.50;;;4.10;;
76176;SDS011;64938;47.696;8.066;2022-11-20T03:09:37;5.80;;;4.40;;
76176;SDS011;64938;47.696;8.066;2022-11-20T03:12:02;6.00;;;5.40;;
76176;SDS011;64938;47.696;8.066;2022-11-20T03:14:28;7.03;;;4.90;;
76176;SDS011;64938;47.696;8.066;2022-11-20T03:16:54;6.13;;;5.63;;
76176;SDS011;64938;47.696;8.066;2022-11-20T03:19:20;6.40;;;5.20;;
76176;SDS011;64938;47.696;8.066;2022-11-20T03:21:46;5.20;;;4.70;;
76176;SDS011;64938;47.696;8.066;2022-11-20T03:24:12;5.63;;;5.03;;
76176;SDS011;64938;47.696;8.066;2022-11-20T03:26:38;5.40;;;4.90;;
76176;SDS011;64938;47.696;8.066;2022-11-20T03:29:04;6.67;;;5.07;;
76176;SDS011;64938;47.696;8.066;2022-11-20T03:31:33;6.07;;;5.23;;
76176;SDS011;64938;47.696;8.066;2022-11-20T03:34:00;6.20;;;5.57;;
76176;SDS011;64938;47.696;8.066;2022-11-20T03:36:27;6.70;;;6.00;;
76176;SDS011;64938;47.696;8.066;2022-11-20T03:38:53;6.13;;;5.53;;
76176;SDS011;64938;47.696;8.066;2022-11-20T03:41:21;7.03;;;6.03;;
76176;SDS011;64938;47.696;8.066;2022-11-20T03:46:25;5.90;;;5.30;;
76176;SDS011;64938;47.696;8.066;2022-11-20T03:48:51;5.47;;;4.97;;
76176;SDS011;64938;47.696;8.066;2022-11-20T03:51:19;5.87;;;5.20;;
76176;SDS011;64938;47.696;8.066;2022-11-20T03:53:47;5.87;;;5.20;;
76176;SDS011;64938;47.696;8.066;2022-11-20T03:56:14;6.90;;;5.97;;
76176;SDS011;64938;47.696;8.066;2022-11-20T03:58:42;6.23;;;5.60;;
76176;SDS011;64938;47.696;8.066;2022-11-20T04:01:08;6.47;;;5.87;;
76176;SDS011;64938;47.696;8.066;2022-11-20T04:03:45;7.40;;;6.70;;
76176;SDS011;64938;47.696;8.066;2022-11-20T04:06:13;7.20;;;6.50;;
76176;SDS011;64938;47.696;8.066;2022-11-20T04:08:43;7.63;;;6.83;;
76176;SDS011;64938;47.696;8.066;2022-11-20T04:11:11;6.17;;;5.30;;
76176;SDS011;64938;47.696;8.066;2022-11-20T04:13:38;4.43;;;4.03;;
76176;SDS011;64938;47.696;8.066;2022-11-20T04:16:05;3.90;;;3.60;;
76176;SDS011;64938;47.696;8.066;2022-11-20T04:18:32;4.00;;;3.60;;
76176;SDS011;64938;47.696;8.066;2022-11-20T04:20:58;4.07;;;3.60;;
76176;SDS011;64938;47.696;8.066;2022-11-20T04:23:24;3.87;;;3.43;;
76176;SDS011;64938;47.696;8.066;2022-11-20T04:25:49;5.37;;;4.07;;
76176;SDS011;64938;47.696;8.066;2022-11-20T04:28:15;4.73;;;4.30;;
76176;SDS011;64938;47.696;8.066;2022-11-20T04:30:41;4.90;;;4.50;;
76176;SDS011;64938;47.696;8.066;2022-11-20T04:33:06;4.73;;;4.07;;
76176;SDS011;64938;47.696;8.066;2022-11-20T04:35:33;3.53;;;3.23;;
76176;SDS011;64938;47.696;8.066;2022-11-20T04:38:00;4.10;;;3.80;;
76176;SDS011;64938;47.696;8.066;2022-11-20T04:40:25;3.63;;;3.30;;
76176;SDS011;64938;47.696;8.066;2022-11-20T04:42:52;2.97;;;2.67;;
76176;SDS011;64938;47.696;8.066;2022-11-20T04:45:17;3.00;;;2.53;;
76176;SDS011;64938;47.696;8.066;2022-11-20T04:47:43;2.00;;;1.80;;
76176;SDS011;64938;47.696;8.066;2022-11-20T04:50:09;1.90;;;1.80;;
76176;SDS011;64938;47.696;8.066;2022-11-20T04:52:34;2.00;;;1.80;;
76176;SDS011;64938;47.696;8.066;2022-11-20T04:55:00;1.47;;;1.37;;
76176;SDS011;64938;47.696;8.066;2022-11-20T04:57:26;1.20;;;1.10;;
76176;SDS011;64938;47.696;8.066;2022-11-20T04:59:52;1.07;;;0.90;;
76176;SDS011;64938;47.696;8.066;2022-11-20T05:05:27;1.40;;;1.30;;
76176;SDS011;64938;47.696;8.066;2022-11-20T05:07:55;1.40;;;1.27;;
76176;SDS011;64938;47.696;8.066;2022-11-20T05:10:21;1.70;;;1.60;;
76176;SDS011;64938;47.696;8.066;2022-11-20T05:12:46;4.07;;;2.00;;
76176;SDS011;64938;47.696;8.066;2022-11-20T05:15:12;75.13;;;6.70;;
76176;SDS011;64938;47.696;8.066;2022-11-20T05:17:38;68.70;;;5.70;;
76176;SDS011;64938;47.696;8.066;2022-11-20T05:20:03;238.50;;;14.30;;
76176;SDS011;64938;47.696;8.066;2022-11-20T05:22:29;222.47;;;17.27;;
76176;SDS011;64938;47.696;8.066;2022-11-20T05:24:54;231.27;;;16.50;;
76176;SDS011;64938;47.696;8.066;2022-11-20T05:27:20;325.07;;;18.20;;
76176;SDS011;64938;47.696;8.066;2022-11-20T05:29:45;228.73;;;13.77;;
76176;SDS011;64938;47.696;8.066;2022-11-20T05:32:11;500.53;;;24.73;;
76176;SDS011;64938;47.696;8.066;2022-11-20T05:34:37;492.63;;;25.30;;
76176;SDS011;64938;47.696;8.066;2022-11-20T05:37:02;624.50;;;29.70;;
76176;SDS011;64938;47.696;8.066;2022-11-20T05:39:28;525.97;;;26.23;;
76176;SDS011;64938;47.696;8.066;2022-11-20T05:41:54;507.67;;;25.87;;
76176;SDS011;64938;47.696;8.066;2022-11-20T05:44:39;327.13;;;19.20;;
76176;SDS011;64938;47.696;8.066;2022-11-20T05:47:05;366.00;;;18.57;;
76176;SDS011;64938;47.696;8.066;2022-11-20T05:49:31;584.83;;;27.90;;
76176;SDS011;64938;47.696;8.066;2022-11-20T05:51:57;698.53;;;31.93;;
76176;SDS011;64938;47.696;8.066;2022-11-20T05:54:23;505.80;;;24.33;;
76176;SDS011;64938;47.696;8.066;2022-11-20T05:56:48;555.30;;;29.57;;
76176;SDS011;64938;47.696;8.066;2022-11-20T05:59:14;705.07;;;33.40;;
76176;SDS011;64938;47.696;8.066;2022-11-20T06:01:40;492.80;;;22.77;;
76176;SDS011;64938;47.696;8.066;2022-11-20T06:04:05;911.50;;;38.57;;
76176;SDS011;64938;47.696;8.066;2022-11-20T06:06:31;494.90;;;23.83;;
76176;SDS011;64938;47.696;8.066;2022-11-20T06:08:56;554.60;;;25.63;;
76176;SDS011;64938;47.696;8.066;2022-11-20T06:11:24;709.77;;;31.70;;
76176;SDS011;64938;47.696;8.066;2022-11-20T06:13:49;825.10;;;36.57;;
76176;SDS011;64938;47.696;8.066;2022-11-20T06:16:16;874.40;;;37.90;;
76176;SDS011;64938;47.696;8.066;2022-11-20T06:18:42;489.63;;;25.00;;
76176;SDS011;64938;47.696;8.066;2022-11-20T06:21:10;405.33;;;21.00;;
76176;SDS011;64938;47.696;8.066;2022-11-20T06:23:39;391.47;;;20.03;;
76176;SDS011;64938;47.696;8.066;2022-11-20T06:26:07;343.17;;;18.47;;
76176;SDS011;64938;47.696;8.066;2022-11-20T06:28:36;470.73;;;25.27;;
76176;SDS011;64938;47.696;8.066;2022-11-20T06:31:03;468.27;;;22.30;;
76176;SDS011;64938;47.696;8.066;2022-11-20T06:33:29;365.07;;;22.33;;
76176;SDS011;64938;47.696;8.066;2022-11-20T06:35:56;245.50;;;16.00;;
76176;SDS011;64938;47.696;8.066;2022-11-20T06:38:23;124.17;;;8.70;;
76176;SDS011;64938;47.696;8.066;2022-11-20T06:40:50;183.77;;;13.83;;
76176;SDS011;64938;47.696;8.066;2022-11-20T06:43:15;42.00;;;6.20;;
76176;SDS011;64938;47.696;8.066;2022-11-20T06:45:41;325.77;;;18.77;;
76176;SDS011;64938;47.696;8.066;2022-11-20T06:48:06;39.50;;;6.07;;
76176;SDS011;64938;47.696;8.066;2022-11-20T06:50:32;380.27;;;21.87;;
76176;SDS011;64938;47.696;8.066;2022-11-20T06:53:00;72.03;;;10.17;;
76176;SDS011;64938;47.696;8.066;2022-11-20T06:55:27;403.27;;;21.40;;
76176;SDS011;64938;47.696;8.066;2022-11-20T06:57:53;285.70;;;20.80;;
76176;SDS011;64938;47.696;8.066;2022-11-20T07:00:18;152.87;;;12.20;;
76176;SDS011;64938;47.696;8.066;2022-11-20T07:02:44;404.63;;;23.03;;
76176;SDS011;64938;47.696;8.066;2022-11-20T07:05:10;241.83;;;16.17;;
76176;SDS011;64938;47.696;8.066;2022-11-20T07:07:35;408.33;;;23.77;;
76176;SDS011;64938;47.696;8.066;2022-11-20T07:10:01;449.27;;;26.53;;
76176;SDS011;64938;47.696;8.066;2022-11-20T07:12:27;521.90;;;34.07;;
76176;SDS011;64938;47.696;8.066;2022-11-20T07:14:53;606.03;;;34.00;;
76176;SDS011;64938;47.696;8.066;2022-11-20T07:17:19;428.57;;;26.77;;
76176;SDS011;64938;47.696;8.066;2022-11-20T07:19:44;418.23;;;25.43;;
76176;SDS011;64938;47.696;8.066;2022-11-20T07:22:10;636.43;;;34.17;;
76176;SDS011;64938;47.696;8.066;2022-11-20T07:24:35;456.60;;;25.83;;
76176;SDS011;64938;47.696;8.066;2022-11-20T07:27:01;304.30;;;20.83;;
76176;SDS011;64938;47.696;8.066;2022-11-20T07:29:26;338.90;;;22.40;;
76176;SDS011;64938;47.696;8.066;2022-11-20T07:31:52;410.83;;;27.17;;
76176;SDS011;64938;47.696;8.066;2022-11-20T07:34:18;252.90;;;18.83;;
76176;SDS011;64938;47.696;8.066;2022-11-20T07:36:45;434.53;;;26.03;;
76176;SDS011;64938;47.696;8.066;2022-11-20T07:39:10;518.93;;;26.43;;
76176;SDS011;64938;47.696;8.066;2022-11-20T07:41:36;257.13;;;20.10;;
76176;SDS011;64938;47.696;8.066;2022-11-20T07:44:01;162.73;;;14.50;;
76176;SDS011;64938;47.696;8.066;2022-11-20T07:46:27;209.27;;;17.57;;
76176;SDS011;64938;47.696;8.066;2022-11-20T07:48:52;275.93;;;18.27;;
76176;SDS011;64938;47.696;8.066;2022-11-20T07:51:18;47.23;;;8.30;;
76176;SDS011;64938;47.696;8.066;2022-11-20T07:53:44;203.03;;;17.10;;
76176;SDS011;64938;47.696;8.066;2022-11-20T07:56:09;445.17;;;27.17;;
76176;SDS011;64938;47.696;8.066;2022-11-20T07:58:35;298.27;;;20.20;;
76176;SDS011;64938;47.696;8.066;2022-11-20T08:01:03;41.70;;;7.90;;
76176;SDS011;64938;47.696;8.066;2022-11-20T08:03:30;147.03;;;14.20;;
76176;SDS011;64938;47.696;8.066;2022-11-20T08:05:58;212.23;;;16.87;;
76176;SDS011;64938;47.696;8.066;2022-11-20T08:08:24;239.23;;;16.20;;
76176;SDS011;64938;47.696;8.066;2022-11-20T08:10:50;399.20;;;23.23;;
76176;SDS011;64938;47.696;8.066;2022-11-20T08:13:15;374.63;;;25.37;;
76176;SDS011;64938;47.696;8.066;2022-11-20T08:16:01;391.60;;;22.47;;
76176;SDS011;64938;47.696;8.066;2022-11-20T08:18:27;291.97;;;18.40;;
76176;SDS011;64938;47.696;8.066;2022-11-20T08:20:53;302.67;;;21.30;;
76176;SDS011;64938;47.696;8.066;2022-11-20T08:23:19;136.10;;;13.67;;
76176;SDS011;64938;47.696;8.066;2022-11-20T08:25:48;115.17;;;10.73;;
76176;SDS011;64938;47.696;8.066;2022-11-20T08:28:14;70.17;;;9.60;;
76176;SDS011;64938;47.696;8.066;2022-11-20T08:30:40;9.50;;;6.27;;
76176;SDS011;64938;47.696;8.066;2022-11-20T08:33:06;9.20;;;6.00;;
76176;SDS011;64938;47.696;8.066;2022-11-20T08:35:34;5.97;;;5.37;;
76176;SDS011;64938;47.696;8.066;2022-11-20T08:38:01;5.67;;;5.10;;
76176;SDS011;64938;47.696;8.066;2022-11-20T08:40:28;5.97;;;5.40;;
76176;SDS011;64938;47.696;8.066;2022-11-20T08:42:54;4.63;;;4.23;;
76176;SDS011;64938;47.696;8.066;2022-11-20T08:45:19;4.60;;;4.20;;
76176;SDS011;64938;47.696;8.066;2022-11-20T08:47:48;4.90;;;4.40;;
76176;SDS011;64938;47.696;8.066;2022-11-20T08:50:15;4.00;;;3.70;;
76176;SDS011;64938;47.696;8.066;2022-11-20T08:52:44;4.00;;;3.70;;
76176;SDS011;64938;47.696;8.066;2022-11-20T08:55:10;4.23;;;3.83;;
76176;SDS011;64938;47.696;8.066;2022-11-20T08:57:36;3.43;;;3.13;;
76176;SDS011;64938;47.696;8.066;2022-11-20T09:00:03;4.03;;;3.70;;
76176;SDS011;64938;47.696;8.066;2022-11-20T09:02:30;3.90;;;3.60;;
76176;SDS011;64938;47.696;8.066;2022-11-20T09:04:55;3.40;;;2.97;;
76176;SDS011;64938;47.696;8.066;2022-11-20T09:07:21;3.00;;;2.70;;
76176;SDS011;64938;47.696;8.066;2022-11-20T09:09:46;3.10;;;2.60;;
76176;SDS011;64938;47.696;8.066;2022-11-20T09:12:12;3.10;;;2.60;;
76176;SDS011;64938;47.696;8.066;2022-11-20T09:14:38;2.30;;;2.10;;
76176;SDS011;64938;47.696;8.066;2022-11-20T09:17:04;1.77;;;1.67;;
76176;SDS011;64938;47.696;8.066;2022-11-20T09:19:32;1.60;;;1.50;;
76176;SDS011;64938;47.696;8.066;2022-11-20T09:22:01;1.90;;;1.80;;
76176;SDS011;64938;47.696;8.066;2022-11-20T09:24:27;3.70;;;3.10;;
76176;SDS011;64938;47.696;8.066;2022-11-20T09:26:53;2.90;;;2.60;;
76176;SDS011;64938;47.696;8.066;2022-11-20T09:29:36;1.40;;;1.30;;
76176;SDS011;64938;47.696;8.066;2022-11-20T09:32:07;1.73;;;1.63;;
76176;SDS011;64938;47.696;8.066;2022-11-20T09:34:34;1.83;;;1.73;;
76176;SDS011;64938;47.696;8.066;2022-11-20T09:37:00;1.30;;;1.20;;
76176;SDS011;64938;47.696;8.066;2022-11-20T09:39:26;1.80;;;0.97;;
76176;SDS011;64938;47.696;8.066;2022-11-20T09:47:20;2.07;;;1.87;;
76176;SDS011;64938;47.696;8.066;2022-11-20T09:55:45;4.33;;;3.13;;
76176;SDS011;64938;47.696;8.066;2022-11-20T09:58:15;2.60;;;2.10;;
76176;SDS011;64938;47.696;8.066;2022-11-20T10:00:49;1.80;;;1.70;;
76176;SDS011;64938;47.696;8.066;2022-11-20T10:03:17;1.57;;;1.47;;
76176;SDS011;64938;47.696;8.066;2022-11-20T10:05:50;1.40;;;1.30;;
76176;SDS011;64938;47.696;8.066;2022-11-20T10:08:20;1.10;;;1.00;;
76176;SDS011;64938;47.696;8.066;2022-11-20T10:19:00;1.80;;;1.63;;
76176;SDS011;64938;47.696;8.066;2022-11-20T10:32:42;7.27;;;4.33;;
76176;SDS011;64938;47.696;8.066;2022-11-20T10:35:17;4.40;;;4.10;;
76176;SDS011;64938;47.696;8.066;2022-11-20T10:37:55;4.43;;;4.03;;
76176;SDS011;64938;47.696;8.066;2022-11-20T10:40:27;3.77;;;3.47;;
76176;SDS011;64938;47.696;8.066;2022-11-20T10:43:15;4.00;;;3.70;;
76176;SDS011;64938;47.696;8.066;2022-11-20T10:45:53;4.93;;;4.53;;
76176;SDS011;64938;47.696;8.066;2022-11-20T10:48:23;4.10;;;3.70;;
76176;SDS011;64938;47.696;8.066;2022-11-20T10:50:57;3.60;;;3.30;;
76176;SDS011;64938;47.696;8.066;2022-11-20T11:01:59;3.50;;;3.20;;
76176;SDS011;64938;47.696;8.066;2022-11-20T11:07:12;4.60;;;3.53;;
76176;SDS011;64938;47.696;8.066;2022-11-20T11:09:52;3.30;;;3.10;;
76176;SDS011;64938;47.696;8.066;2022-11-20T11:12:19;3.80;;;3.43;;
76176;SDS011;64938;47.696;8.066;2022-11-20T11:14:49;4.13;;;3.00;;
76176;SDS011;64938;47.696;8.066;2022-11-20T11:17:29;3.53;;;3.23;;
76176;SDS011;64938;47.696;8.066;2022-11-20T11:20:00;3.80;;;3.50;;
76176;SDS011;64938;47.696;8.066;2022-11-20T11:22:46;4.47;;;3.97;;
76176;SDS011;64938;47.696;8.066;2022-11-20T11:25:27;4.00;;;3.60;;
76176;SDS011;64938;47.696;8.066;2022-11-20T11:28:00;3.67;;;3.37;;
76176;SDS011;64938;47.696;8.066;2022-11-20T11:30:28;4.00;;;3.60;;
76176;SDS011;64938;47.696;8.066;2022-11-20T11:33:18;3.70;;;3.37;;
76176;SDS011;64938;47.696;8.066;2022-11-20T11:35:46;4.03;;;3.70;;
76176;SDS011;64938;47.696;8.066;2022-11-20T11:38:14;4.00;;;3.70;;
76176;SDS011;64938;47.696;8.066;2022-11-20T11:40:42;5.13;;;4.30;;
76176;SDS011;64938;47.696;8.066;2022-11-20T11:43:25;3.50;;;3.20;;
76176;SDS011;64938;47.696;8.066;2022-11-20T11:48:55;2.60;;;2.43;;
76176;SDS011;64938;47.696;8.066;2022-11-20T11:51:31;2.93;;;2.73;;
76176;SDS011;64938;47.696;8.066;2022-11-20T11:54:00;1.80;;;1.70;;
76176;SDS011;64938;47.696;8.066;2022-11-20T11:56:28;3.77;;;3.47;;
76176;SDS011;64938;47.696;8.066;2022-11-20T11:58:54;1.67;;;1.53;;
76176;SDS011;64938;47.696;8.066;2022-11-20T12:01:27;2.53;;;2.30;;
76176;SDS011;64938;47.696;8.066;2022-11-20T12:04:16;2.30;;;2.10;;
76176;SDS011;64938;47.696;8.066;2022-11-20T12:07:12;1.97;;;1.80;;
76176;SDS011;64938;47.696;8.066;2022-11-20T12:09:46;1.80;;;1.60;;
76176;SDS011;64938;47.696;8.066;2022-11-20T12:12:18;2.80;;;2.07;;
76176;SDS011;64938;47.696;8.066;2022-11-20T12:14:47;3.83;;;2.90;;
76176;SDS011;64938;47.696;8.066;2022-11-20T12:17:17;2.80;;;2.60;;
76176;SDS011;64938;47.696;8.066;2022-11-20T12:19:43;3.13;;;2.93;;
76176;SDS011;64938;47.696;8.066;2022-11-20T12:27:54;2.70;;;2.50;;
76176;SDS011;64938;47.696;8.066;2022-11-20T12:33:38;2.60;;;2.40;;
76176;SDS011;64938;47.696;8.066;2022-11-20T12:36:33;4.83;;;3.10;;
76176;SDS011;64938;47.696;8.066;2022-11-20T12:41:59;2.93;;;2.73;;
76176;SDS011;64938;47.696;8.066;2022-11-20T12:53:44;2.80;;;2.60;;
76176;SDS011;64938;47.696;8.066;2022-11-20T12:59:21;3.60;;;3.30;;
76176;SDS011;64938;47.696;8.066;2022-11-20T13:07:42;2.70;;;2.50;;
76176;SDS011;64938;47.696;8.066;2022-11-20T13:15:49;3.43;;;2.90;;
76176;SDS011;64938;47.696;8.066;2022-11-20T13:18:25;3.27;;;2.97;;
76176;SDS011;64938;47.696;8.066;2022-11-20T13:20:51;3.20;;;2.90;;
76176;SDS011;64938;47.696;8.066;2022-11-20T13:23:25;3.33;;;3.07;;
76176;SDS011;64938;47.696;8.066;2022-11-20T13:26:03;3.23;;;2.90;;
76176;SDS011;64938;47.696;8.066;2022-11-20T13:28:34;3.53;;;3.23;;
76176;SDS011;64938;47.696;8.066;2022-11-20T13:31:01;3.20;;;2.90;;
76176;SDS011;64938;47.696;8.066;2022-11-20T13:33:43;3.40;;;3.10;;
76176;SDS011;64938;47.696;8.066;2022-11-20T13:36:28;4.43;;;3.40;;
76176;SDS011;64938;47.696;8.066;2022-11-20T13:38:55;6.43;;;3.33;;
76176;SDS011;64938;47.696;8.066;2022-11-20T13:41:24;3.50;;;3.00;;
76176;SDS011;64938;47.696;8.066;2022-11-20T13:44:06;3.63;;;3.23;;
76176;SDS011;64938;47.696;8.066;2022-11-20T13:46:55;3.23;;;2.93;;
76176;SDS011;64938;47.696;8.066;2022-11-20T13:49:37;5.17;;;3.17;;
76176;SDS011;64938;47.696;8.066;2022-11-20T13:52:14;3.60;;;3.30;;
76176;SDS011;64938;47.696;8.066;2022-11-20T14:00:17;3.03;;;2.83;;
76176;SDS011;64938;47.696;8.066;2022-11-20T14:05:34;3.03;;;2.43;;
76176;SDS011;64938;47.696;8.066;2022-11-20T14:08:03;4.07;;;2.90;;
76176;SDS011;64938;47.696;8.066;2022-11-20T14:10:30;3.90;;;3.60;;
76176;SDS011;64938;47.696;8.066;2022-11-20T14:12:57;5.63;;;4.30;;
76176;SDS011;64938;47.696;8.066;2022-11-20T14:18:11;3.03;;;2.67;;
76176;SDS011;64938;47.696;8.066;2022-11-20T14:20:39;3.87;;;2.80;;
76176;SDS011;64938;47.696;8.066;2022-11-20T14:23:46;2.60;;;2.37;;
76176;SDS011;64938;47.696;8.066;2022-11-20T14:26:14;2.73;;;2.53;;
76176;SDS011;64938;47.696;8.066;2022-11-20T14:28:43;1.83;;;1.73;;
76176;SDS011;64938;47.696;8.066;2022-11-20T14:31:17;3.10;;;2.63;;
76176;SDS011;64938;47.696;8.066;2022-11-20T14:33:47;2.10;;;1.90;;
76176;SDS011;64938;47.696;8.066;2022-11-20T14:36:16;3.07;;;2.40;;
76176;SDS011;64938;47.696;8.066;2022-11-20T14:38:46;3.03;;;2.03;;
76176;SDS011;64938;47.696;8.066;2022-11-20T14:41:21;3.07;;;2.40;;
76176;SDS011;64938;47.696;8.066;2022-11-20T14:43:51;2.20;;;2.00;;
76176;SDS011;64938;47.696;8.066;2022-11-20T14:46:20;6.90;;;2.20;;
76176;SDS011;64938;47.696;8.066;2022-11-20T14:48:49;1.93;;;1.73;;
76176;SDS011;64938;47.696;8.066;2022-11-20T14:54:15;4.63;;;2.33;;
76176;SDS011;64938;47.696;8.066;2022-11-20T14:56:42;7.33;;;6.73;;
76176;SDS011;64938;47.696;8.066;2022-11-20T14:59:22;5.07;;;2.70;;
76176;SDS011;64938;47.696;8.066;2022-11-20T15:02:06;2.73;;;1.90;;
76176;SDS011;64938;47.696;8.066;2022-11-20T15:04:44;3.50;;;1.90;;
76176;SDS011;64938;47.696;8.066;2022-11-20T15:07:11;2.40;;;2.20;;
76176;SDS011;64938;47.696;8.066;2022-11-20T15:09:37;5.27;;;3.27;;
76176;SDS011;64938;47.696;8.066;2022-11-20T15:12:03;2.57;;;2.37;;
76176;SDS011;64938;47.696;8.066;2022-11-20T15:14:30;3.57;;;2.60;;
76176;SDS011;64938;47.696;8.066;2022-11-20T15:16:56;2.40;;;1.87;;
76176;SDS011;64938;47.696;8.066;2022-11-20T15:19:23;3.13;;;2.13;;
76176;SDS011;64938;47.696;8.066;2022-11-20T15:21:50;2.47;;;2.27;;
76176;SDS011;64938;47.696;8.066;2022-11-20T15:24:16;2.20;;;2.07;;
76176;SDS011;64938;47.696;8.066;2022-11-20T15:26:43;3.20;;;3.00;;
76176;SDS011;64938;47.696;8.066;2022-11-20T15:29:12;2.90;;;2.07;;
76176;SDS011;64938;47.696;8.066;2022-11-20T15:31:40;2.90;;;2.03;;
76176;SDS011;64938;47.696;8.066;2022-11-20T15:34:12;2.93;;;2.33;;
76176;SDS011;64938;47.696;8.066;2022-11-20T15:36:39;2.10;;;2.00;;
76176;SDS011;64938;47.696;8.066;2022-11-20T15:39:05;2.40;;;2.20;;
76176;SDS011;64938;47.696;8.066;2022-11-20T15:41:33;3.00;;;2.47;;
76176;SDS011;64938;47.696;8.066;2022-11-20T15:43:59;3.07;;;2.60;;
76176;SDS011;64938;47.696;8.066;2022-11-20T15:46:26;3.80;;;3.00;;
76176;SDS011;64938;47.696;8.066;2022-11-20T15:48:54;3.70;;;2.97;;
76176;SDS011;64938;47.696;8.066;2022-11-20T15:51:37;3.07;;;2.80;;
76176;SDS011;64938;47.696;8.066;2022-11-20T15:54:09;3.40;;;3.10;;
76176;SDS011;64938;47.696;8.066;2022-11-20T15:56:47;2.80;;;2.60;;
76176;SDS011;64938;47.696;8.066;2022-11-20T15:59:15;5.00;;;4.60;;
76176;SDS011;64938;47.696;8.066;2022-11-20T16:01:41;3.47;;;3.17;;
76176;SDS011;64938;47.696;8.066;2022-11-20T16:04:12;3.73;;;3.07;;
76176;SDS011;64938;47.696;8.066;2022-11-20T16:06:40;3.07;;;2.87;;
76176;SDS011;64938;47.696;8.066;2022-11-20T16:09:06;3.30;;;3.00;;
76176;SDS011;64938;47.696;8.066;2022-11-20T16:11:33;4.00;;;3.40;;
76176;SDS011;64938;47.696;8.066;2022-11-20T16:14:00;3.03;;;2.80;;
76176;SDS011;64938;47.696;8.066;2022-11-20T16:16:46;3.50;;;3.20;;
76176;SDS011;64938;47.696;8.066;2022-11-20T16:19:13;3.80;;;3.10;;
76176;SDS011;64938;47.696;8.066;2022-11-20T16:21:41;5.93;;;3.60;;
76176;SDS011;64938;47.696;8.066;2022-11-20T16:24:07;3.80;;;3.40;;
76176;SDS011;64938;47.696;8.066;2022-11-20T16:26:34;4.00;;;3.47;;
76176;SDS011;64938;47.696;8.066;2022-11-20T16:29:01;3.27;;;3.00;;
76176;SDS011;64938;47.696;8.066;2022-11-20T16:31:28;4.30;;;3.37;;